Time;durP1;ratioP1;P1;durP2;ratioP2;P2;SDS_P1;SDS_P2;PMS_P1;PMS_P2;Temp;Humidity;BMP_temperature;BMP_pressure;BME280_temperature;BME280_humidity;BME280_pressure;Samples;Min_cycle;Max_cycle;Signal;HPM_P1;HPM_P2
2021/09/04 00:00:14;;;;;;;7.33;3.67;;;;;;;12.49;79.13;98999.61;1726400;82;20960;-70
2021/09/04 00:02:40;;;;;;;7.08;3.83;;;;;;;12.46;79.39;99000.86;1724258;82;20909;-73
2021/09/04 00:05:08;;;;;;;5.97;3.35;;;;;;;12.43;79.62;98996.84;1728574;82;21484;-70
2021/09/04 00:07:34;;;;;;;7.25;3.72;;;;;;;12.41;79.75;99003.26;1722643;82;21101;-70
2021/09/04 00:10:01;;;;;;;8.35;3.83;;;;;;;12.38;80.01;98997.06;1719601;82;22184;-70
2021/09/04 00:12:29;;;;;;;6.70;3.50;;;;;;;12.36;80.27;98993.84;1725864;81;20963;-69
2021/09/04 00:14:58;;;;;;;6.15;3.33;;;;;;;12.34;80.44;99003.02;1681587;83;21461;-69
2021/09/04 00:17:25;;;;;;;8.18;3.77;;;;;;;12.30;80.73;98999.91;1698845;83;21064;-69
2021/09/04 00:19:52;;;;;;;8.10;3.95;;;;;;;12.24;81.04;99004.25;1711871;82;21901;-69
2021/09/04 00:22:19;;;;;;;6.85;3.92;;;;;;;12.18;81.34;98996.55;1688836;83;21400;-70
2021/09/04 00:24:45;;;;;;;7.28;3.65;;;;;;;12.13;81.48;98996.19;1756433;80;20981;-70
2021/09/04 00:27:12;;;;;;;11.38;4.40;;;;;;;12.09;81.77;98995.86;1760640;80;20995;-69
2021/09/04 00:29:39;;;;;;;9.80;3.72;;;;;;;12.04;82.08;98994.69;1753323;80;20931;-70
2021/09/04 00:32:06;;;;;;;7.50;3.75;;;;;;;11.99;82.44;98996.28;1731151;81;22383;-70
2021/09/04 00:34:32;;;;;;;6.47;3.62;;;;;;;11.94;82.77;98993.16;1716463;82;20959;-69
2021/09/04 00:36:59;;;;;;;10.03;4.22;;;;;;;11.90;83.01;98995.78;1724243;82;21025;-69
2021/09/04 00:39:25;;;;;;;7.62;4.17;;;;;;;11.88;83.32;99000.02;1722372;82;20997;-69
2021/09/04 00:41:52;;;;;;;6.50;3.62;;;;;;;11.84;83.64;98993.01;1722970;82;21121;-68
2021/09/04 00:44:21;;;;;;;9.90;4.00;;;;;;;11.82;83.87;98987.04;1735219;80;22410;-68
2021/09/04 00:46:48;;;;;;;7.95;3.90;;;;;;;11.80;84.08;98988.52;1740369;82;20988;-68
2021/09/04 00:49:15;;;;;;;8.13;4.05;;;;;;;11.79;84.36;98991.84;1725368;82;20863;-69
2021/09/04 00:51:42;;;;;;;9.73;3.75;;;;;;;11.77;84.67;98985.88;1726594;82;20966;-70
2021/09/04 00:54:09;;;;;;;6.50;3.72;;;;;;;11.77;84.86;98994.69;1727696;81;21105;-69
2021/09/04 00:56:37;;;;;;;6.70;3.75;;;;;;;11.76;85.12;98989.73;1725566;82;21147;-68
2021/09/04 00:59:08;;;;;;;7.42;3.83;;;;;;;11.75;85.45;98989.50;1723202;82;21146;-68
2021/09/04 01:01:36;;;;;;;7.20;4.17;;;;;;;11.76;85.55;98988.92;1731063;81;21506;-69
2021/09/04 01:04:04;;;;;;;8.90;4.00;;;;;;;11.77;85.64;98994.12;1720783;82;22149;-68
2021/09/04 01:06:31;;;;;;;15.75;4.28;;;;;;;11.79;85.69;98991.84;1739972;81;20991;-68
2021/09/04 01:08:58;;;;;;;9.78;4.37;;;;;;;11.79;85.76;98984.96;1724591;82;21521;-68
2021/09/04 01:11:24;;;;;;;9.33;4.20;;;;;;;11.81;85.81;98985.43;1738527;81;20935;-69
2021/09/04 01:13:53;;;;;;;9.48;4.35;;;;;;;11.80;85.87;98986.57;1725177;82;21039;-68
2021/09/04 01:16:20;;;;;;;11.08;4.20;;;;;;;11.80;85.97;98984.39;1731188;82;20917;-69
2021/09/04 01:18:46;;;;;;;8.33;4.55;;;;;;;11.77;86.10;98979.56;1738233;82;21027;-69
2021/09/04 01:21:13;;;;;;;12.95;4.22;;;;;;;11.74;86.24;98984.33;1736612;81;21566;-69
2021/09/04 01:23:39;;;;;;;11.78;5.08;;;;;;;11.69;86.34;98990.84;1730321;82;20943;-68
2021/09/04 01:26:08;;;;;;;10.85;4.20;;;;;;;11.64;86.50;98988.30;1720668;82;20934;-71
2021/09/04 01:28:36;;;;;;;9.83;3.98;;;;;;;11.59;86.65;98983.00;1740805;81;21515;-69
2021/09/04 01:31:04;;;;;;;8.73;4.58;;;;;;;11.52;86.87;98989.06;1735479;82;21019;-70
2021/09/04 01:33:31;;;;;;;7.83;4.22;;;;;;;11.47;87.15;98999.45;1722144;82;21157;-67
2021/09/04 01:35:57;;;;;;;8.40;3.85;;;;;;;11.41;87.37;98998.84;1722140;82;21033;-69
2021/09/04 01:38:24;;;;;;;7.12;3.65;;;;;;;11.36;87.64;98995.48;1727148;82;21009;-68
2021/09/04 01:40:52;;;;;;;7.45;4.12;;;;;;;11.29;87.80;98985.59;1728963;82;21525;-68
2021/09/04 01:43:20;;;;;;;8.88;4.20;;;;;;;11.21;88.00;98981.77;1713599;82;21090;-68
2021/09/04 01:45:46;;;;;;;8.00;4.53;;;;;;;11.12;88.16;98981.81;1721927;82;23295;-68
2021/09/04 01:48:13;;;;;;;8.38;4.72;;;;;;;11.02;88.74;98987.70;1722072;82;21031;-70
2021/09/04 01:50:39;;;;;;;9.78;4.25;;;;;;;10.98;89.38;98988.69;1722798;82;21378;-71
2021/09/04 01:53:06;;;;;;;10.32;4.62;;;;;;;10.94;89.90;98992.70;1725870;82;21016;-70
2021/09/04 01:55:33;;;;;;;10.03;4.22;;;;;;;10.93;90.30;98991.09;1722414;82;21621;-70
2021/09/04 01:57:59;;;;;;;9.93;4.08;;;;;;;10.93;90.58;99002.07;1719375;81;21053;-70
2021/09/04 02:00:26;;;;;;;9.28;4.85;;;;;;;10.93;90.90;99010.31;1707262;82;21031;-67
2021/09/04 02:02:52;;;;;;;7.90;4.15;;;;;;;10.90;91.23;99005.48;1715456;81;21062;-69
2021/09/04 02:05:19;;;;;;;14.33;4.17;;;;;;;10.88;91.50;99004.44;1718301;81;21027;-69
2021/09/04 02:07:46;;;;;;;7.35;4.03;;;;;;;10.87;91.70;99013.00;1736678;81;21044;-68
2021/09/04 02:10:14;;;;;;;10.03;3.90;;;;;;;10.84;91.87;99015.03;1718191;81;20910;-69
2021/09/04 02:12:41;;;;;;;12.53;4.28;;;;;;;10.80;92.04;99014.08;1725363;80;21044;-70
2021/09/04 02:15:08;;;;;;;10.38;4.70;;;;;;;10.75;92.42;99010.95;1750036;81;20948;-70
2021/09/04 02:17:36;;;;;;;8.85;4.35;;;;;;;10.76;92.93;99009.82;1728110;81;21075;-69
2021/09/04 02:20:06;;;;;;;11.68;4.70;;;;;;;10.81;93.29;99018.44;1702083;82;21021;-69
2021/09/04 02:22:33;;;;;;;8.45;4.50;;;;;;;10.84;93.63;99013.66;1705482;81;21136;-69
2021/09/04 02:25:02;;;;;;;10.40;4.55;;;;;;;10.88;93.79;99006.38;1723473;81;20932;-69
2021/09/04 02:27:30;;;;;;;8.85;4.25;;;;;;;10.92;93.97;99005.95;1699866;83;21138;-69
2021/09/04 02:29:58;;;;;;;11.33;4.37;;;;;;;10.96;94.13;99001.98;1714100;83;21169;-69
2021/09/04 02:32:25;;;;;;;7.35;4.37;;;;;;;11.00;94.15;98998.77;1700987;82;21001;-71
2021/09/04 02:34:53;;;;;;;12.03;4.80;;;;;;;11.02;94.25;98997.31;1737065;82;21842;-69
2021/09/04 02:37:20;;;;;;;7.17;4.28;;;;;;;11.06;94.38;98995.51;1728290;82;21042;-70
2021/09/04 02:39:49;;;;;;;9.30;4.40;;;;;;;11.08;94.39;99005.59;1727965;82;22139;-75
2021/09/04 02:42:17;;;;;;;10.05;4.70;;;;;;;11.08;94.44;99006.97;1738204;82;21004;-68
2021/09/04 02:44:44;;;;;;;7.37;4.00;;;;;;;11.07;94.70;99010.85;1737954;82;21048;-70
2021/09/04 02:47:12;;;;;;;12.37;4.87;;;;;;;11.04;94.68;99005.22;1735865;81;21098;-70
2021/09/04 02:49:40;;;;;;;9.15;4.80;;;;;;;11.04;94.96;99006.59;1723623;82;21521;-71
2021/09/04 02:52:07;;;;;;;9.38;4.83;;;;;;;11.05;95.14;99010.95;1743167;82;21470;-71
2021/09/04 02:54:34;;;;;;;9.93;4.72;;;;;;;11.07;95.35;99014.97;1725016;82;21015;-71
2021/09/04 02:57:00;;;;;;;12.03;4.87;;;;;;;11.09;95.63;99014.64;1730429;82;20994;-70
2021/09/04 02:59:28;;;;;;;6.12;4.40;;;;;;;11.12;95.76;99016.16;1730223;82;21937;-69
2021/09/04 03:01:56;;;;;;;10.45;5.28;;;;;;;11.18;95.88;99020.33;1725692;82;21328;-68
2021/09/04 03:04:24;;;;;;;10.70;4.78;;;;;;;11.25;95.90;99030.79;1717872;82;20913;-69
2021/09/04 03:06:51;;;;;;;11.60;4.70;;;;;;;11.30;95.88;99028.42;1724601;83;21931;-68
2021/09/04 03:09:19;;;;;;;8.78;4.67;;;;;;;11.36;95.80;99034.77;1729193;81;20993;-68
2021/09/04 03:11:46;;;;;;;8.30;4.95;;;;;;;11.39;95.74;99039.59;1719401;82;21131;-68
2021/09/04 03:14:13;;;;;;;10.50;4.70;;;;;;;11.45;95.68;99045.70;1722983;82;22241;-67
2021/09/04 03:16:42;;;;;;;8.38;4.67;;;;;;;11.50;95.50;99051.81;1720515;82;21453;-68
2021/09/04 03:19:09;;;;;;;11.55;5.00;;;;;;;11.55;95.51;99056.31;1729244;82;21560;-68
2021/09/04 03:21:37;;;;;;;12.20;4.78;;;;;;;11.59;95.65;99053.09;1713172;82;21556;-68
2021/09/04 03:24:04;;;;;;;8.63;4.53;;;;;;;11.63;95.47;99052.66;1730691;82;21145;-68
2021/09/04 03:26:31;;;;;;;7.78;4.45;;;;;;;11.66;95.32;99058.06;1710950;82;21108;-69
2021/09/04 03:28:58;;;;;;;8.43;5.17;;;;;;;11.67;95.17;99053.61;1716711;82;21024;-67
2021/09/04 03:31:25;;;;;;;7.67;4.60;;;;;;;11.70;94.96;99056.26;1725517;81;21596;-68
2021/09/04 03:33:53;;;;;;;10.93;4.87;;;;;;;11.72;94.92;99063.60;1725905;82;20976;-68
2021/09/04 03:36:19;;;;;;;11.18;5.12;;;;;;;11.73;94.90;99068.77;1733582;82;21103;-67
2021/09/04 03:38:47;;;;;;;11.45;4.60;;;;;;;11.74;94.79;99073.13;1717780;81;20932;-68
2021/09/04 03:41:14;;;;;;;11.97;5.70;;;;;;;11.76;94.78;99070.84;1712041;82;20997;-69
2021/09/04 03:43:41;;;;;;;12.68;4.97;;;;;;;11.79;95.08;99073.53;1729879;81;21027;-69
2021/09/04 03:46:09;;;;;;;15.10;5.45;;;;;;;11.80;94.96;99074.57;1725204;81;21087;-69
2021/09/04 03:48:38;;;;;;;8.78;4.97;;;;;;;11.82;94.83;99074.23;1719180;82;21106;-69
2021/09/04 03:51:05;;;;;;;10.80;4.87;;;;;;;11.83;94.85;99082.16;1726827;81;20993;-68
2021/09/04 03:53:33;;;;;;;9.25;5.08;;;;;;;11.84;95.25;99085.14;1705973;82;21022;-69
2021/09/04 03:56:02;;;;;;;10.72;5.25;;;;;;;11.87;95.44;99088.59;1733068;81;20965;-69
2021/09/04 03:58:30;;;;;;;9.43;5.45;;;;;;;11.89;95.54;99095.13;1725613;81;20953;-68
2021/09/04 04:00:56;;;;;;;10.72;5.22;;;;;;;11.91;95.79;99091.48;1733348;81;21278;-67
2021/09/04 04:03:23;;;;;;;11.73;5.20;;;;;;;11.94;95.80;99099.06;1712004;81;21002;-68
2021/09/04 04:05:51;;;;;;;11.55;5.40;;;;;;;11.98;95.74;99110.20;1713450;81;21015;-68
2021/09/04 04:08:18;;;;;;;12.60;5.95;;;;;;;12.00;95.43;99102.41;1720606;82;21109;-68
2021/09/04 04:10:45;;;;;;;9.80;5.35;;;;;;;12.02;95.45;99103.69;1726259;81;20899;-68
2021/09/04 04:13:12;;;;;;;8.45;4.95;;;;;;;12.07;95.56;99102.69;1722632;81;21318;-68
2021/09/04 04:15:38;;;;;;;9.55;5.62;;;;;;;12.08;95.40;99096.05;1712541;81;20906;-68
2021/09/04 04:18:06;;;;;;;9.98;5.35;;;;;;;12.09;95.22;99107.28;1718820;81;21034;-68
2021/09/04 04:20:32;;;;;;;10.93;5.33;;;;;;;12.07;95.17;99106.81;1696203;82;21049;-69
2021/09/04 04:22:59;;;;;;;11.63;5.22;;;;;;;12.06;95.23;99112.08;1704429;81;21537;-67
2021/09/04 04:25:25;;;;;;;10.48;5.12;;;;;;;12.06;95.33;99110.13;1688957;83;21110;-68
2021/09/04 04:27:52;;;;;;;11.50;5.70;;;;;;;12.08;95.56;99119.42;1696831;83;21687;-68
2021/09/04 04:30:19;;;;;;;10.63;4.85;;;;;;;12.09;95.55;99128.72;1706383;83;21627;-68
2021/09/04 04:32:47;;;;;;;16.80;6.37;;;;;;;12.11;95.66;99131.14;1738517;81;21014;-69
2021/09/04 04:35:15;;;;;;;11.30;4.67;;;;;;;12.12;95.89;99130.80;1732997;81;21512;-68
2021/09/04 04:37:43;;;;;;;9.93;5.47;;;;;;;12.16;95.91;99130.91;1718784;81;21150;-68
2021/09/04 04:40:12;;;;;;;12.75;5.42;;;;;;;12.20;95.80;99131.84;1721637;82;20917;-68
2021/09/04 04:42:40;;;;;;;11.93;5.08;;;;;;;12.26;95.87;99141.51;1724578;82;20926;-68
2021/09/04 04:45:09;;;;;;;12.00;5.03;;;;;;;12.32;95.72;99142.91;1742631;82;20925;-69
2021/09/04 04:47:36;;;;;;;8.18;4.65;;;;;;;12.36;95.28;99149.36;1735860;82;20942;-69
2021/09/04 04:50:06;;;;;;;11.50;5.72;;;;;;;12.41;95.03;99152.48;1732149;81;20899;-69
2021/09/04 04:52:34;;;;;;;11.50;5.10;;;;;;;12.45;94.87;99152.84;1717525;81;20906;-68
2021/09/04 04:55:05;;;;;;;11.88;5.78;;;;;;;12.47;94.27;99149.75;1718048;81;20985;-69
2021/09/04 04:57:32;;;;;;;10.85;5.97;;;;;;;12.46;94.12;99155.83;1707658;82;21050;-68
2021/09/04 04:59:59;;;;;;;9.35;5.53;;;;;;;12.46;94.40;99155.83;1713579;81;20863;-70
2021/09/04 05:02:26;;;;;;;12.40;5.97;;;;;;;12.49;94.61;99161.23;1739776;81;21073;-69
2021/09/04 05:04:53;;;;;;;12.25;6.20;;;;;;;12.55;94.59;99163.44;1715888;82;21623;-69
2021/09/04 05:07:21;;;;;;;12.07;5.97;;;;;;;12.58;94.22;99157.02;1722793;82;20993;-70
2021/09/04 05:09:47;;;;;;;15.40;6.92;;;;;;;12.58;94.06;99165.28;1709306;81;20974;-69
2021/09/04 05:12:15;;;;;;;13.70;8.00;;;;;;;12.60;94.06;99172.64;1721912;82;20910;-69
2021/09/04 05:14:41;;;;;;;14.30;7.35;;;;;;;12.61;93.42;99172.88;1741617;81;21161;-69
2021/09/04 05:17:10;;;;;;;13.78;8.23;;;;;;;12.62;93.55;99175.86;1734966;81;21393;-69
2021/09/04 05:19:39;;;;;;;14.13;7.95;;;;;;;12.63;93.45;99176.09;1728835;82;20951;-69
2021/09/04 05:22:07;;;;;;;14.20;8.48;;;;;;;12.66;93.47;99182.30;1716910;81;20907;-71
2021/09/04 05:24:34;;;;;;;23.60;13.62;;;;;;;12.70;93.64;99180.48;1726065;81;21071;-68
2021/09/04 05:27:01;;;;;;;32.28;18.48;;;;;;;12.78;93.92;99178.19;1704941;81;21046;-69
2021/09/04 05:29:30;;;;;;;34.88;19.30;;;;;;;12.83;93.37;99184.29;1714570;81;21560;-74
2021/09/04 05:31:56;;;;;;;28.42;19.25;;;;;;;12.86;93.09;99184.98;1717788;81;20937;-74
2021/09/04 05:34:23;;;;;;;36.60;19.82;;;;;;;12.89;92.35;99191.20;1742825;82;20945;-72
2021/09/04 05:36:51;;;;;;;28.92;16.85;;;;;;;12.87;92.15;99193.48;1714483;81;21038;-70
2021/09/04 05:39:19;;;;;;;27.70;17.35;;;;;;;12.89;91.94;99198.09;1707460;82;21198;-71
2021/09/04 05:41:46;;;;;;;23.70;14.50;;;;;;;12.90;92.20;99197.52;1723915;81;21538;-75
2021/09/04 05:44:12;;;;;;;20.97;12.88;;;;;;;12.89;92.15;99206.92;1729600;82;21552;-68
2021/09/04 05:46:39;;;;;;;20.43;13.53;;;;;;;12.87;92.39;99208.64;1718382;81;21499;-72
2021/09/04 05:49:05;;;;;;;18.73;11.85;;;;;;;12.88;92.54;99214.95;1727721;81;20865;-70
2021/09/04 05:51:31;;;;;;;21.48;11.55;;;;;;;12.89;92.50;99220.12;1718355;82;21136;-75
2021/09/04 05:53:59;;;;;;;18.45;11.15;;;;;;;12.91;92.36;99217.03;1731070;81;21045;-82
2021/09/04 05:56:25;;;;;;;19.05;9.25;;;;;;;12.93;92.00;99222.20;1726781;82;21522;-80
2021/09/04 05:58:52;;;;;;;24.60;7.92;;;;;;;12.94;91.38;99219.11;1713442;82;21022;-80
2021/09/04 06:01:19;;;;;;;11.08;6.17;;;;;;;12.99;91.45;99218.09;1701555;82;21051;-83
2021/09/04 06:03:45;;;;;;;10.10;4.47;;;;;;;13.08;90.72;99218.81;1725495;81;22198;-69
2021/09/04 06:06:12;;;;;;;7.17;3.75;;;;;;;13.21;89.45;99211.65;1751658;81;21553;-70
2021/09/04 06:08:39;;;;;;;6.33;3.67;;;;;;;13.34;85.69;99214.40;1726748;81;21231;-69
2021/09/04 06:11:06;;;;;;;6.53;4.37;;;;;;;13.42;85.64;99216.25;1715103;80;21559;-72
2021/09/04 06:13:34;;;;;;;6.53;4.28;;;;;;;13.52;84.10;99221.33;1700831;82;21517;-69
2021/09/04 06:16:00;;;;;;;8.00;4.85;;;;;;;13.57;84.38;99225.23;1716213;81;21514;-71
2021/09/04 06:18:28;;;;;;;11.12;5.75;;;;;;;13.63;84.66;99232.14;1701378;82;20902;-69
2021/09/04 06:20:55;;;;;;;12.95;5.92;;;;;;;13.68;83.30;99240.19;1732520;81;21029;-70
2021/09/04 06:23:21;;;;;;;17.52;6.50;;;;;;;13.70;83.15;99241.23;1718221;81;20951;-70
2021/09/04 06:25:49;;;;;;;12.45;6.92;;;;;;;13.72;82.14;99234.80;1718204;81;21005;-71
2021/09/04 06:28:16;;;;;;;14.05;7.40;;;;;;;13.71;82.43;99240.88;1738494;81;21125;-71
2021/09/04 06:30:42;;;;;;;12.47;6.20;;;;;;;13.71;82.22;99239.50;1730083;80;21030;-71
2021/09/04 06:33:09;;;;;;;11.05;5.47;;;;;;;13.79;82.22;99246.06;1733547;80;20899;-71
2021/09/04 06:35:36;;;;;;;9.63;4.80;;;;;;;13.89;81.54;99245.00;1747737;81;20904;-73
2021/09/04 06:38:03;;;;;;;9.80;5.22;;;;;;;13.98;80.03;99255.13;1724474;81;21043;-68
2021/09/04 06:40:30;;;;;;;10.30;5.22;;;;;;;14.06;79.20;99259.72;1746049;81;21448;-69
2021/09/04 06:42:56;;;;;;;15.18;6.90;;;;;;;14.15;79.03;99262.59;1759566;81;20893;-69
2021/09/04 06:45:25;;;;;;;6.50;3.72;;;;;;;14.25;78.29;99261.32;1758640;81;20988;-70
2021/09/04 06:47:52;;;;;;;6.72;3.98;;;;;;;14.30;77.96;99269.37;1758093;81;21070;-69
2021/09/04 06:50:19;;;;;;;5.00;2.95;;;;;;;14.34;77.18;99265.34;1757883;81;21039;-70
2021/09/04 06:52:47;;;;;;;9.25;3.12;;;;;;;14.38;75.17;99273.96;1751064;81;20920;-70
2021/09/04 06:55:15;;;;;;;7.50;3.02;;;;;;;14.37;74.97;99284.78;1749115;81;20927;-70
2021/09/04 06:57:42;;;;;;;7.75;3.62;;;;;;;14.42;75.66;99282.39;1761264;81;21392;-69
2021/09/04 07:00:10;;;;;;;7.33;3.45;;;;;;;14.44;75.55;99275.94;1752460;81;21057;-69
2021/09/04 07:02:37;;;;;;;9.35;3.52;;;;;;;14.49;74.99;99294.43;1755639;81;21538;-68
2021/09/04 07:05:05;;;;;;;6.87;3.47;;;;;;;14.55;74.64;99296.38;1749190;81;21173;-69
2021/09/04 07:07:32;;;;;;;8.20;3.50;;;;;;;14.59;74.20;99298.67;1753688;81;21161;-68
2021/09/04 07:09:58;;;;;;;10.00;3.37;;;;;;;14.69;74.82;99301.53;1752275;81;21310;-70
2021/09/04 07:12:25;;;;;;;6.17;2.83;;;;;;;14.82;74.63;99307.27;1748686;81;21017;-73
2021/09/04 07:14:52;;;;;;;5.70;2.75;;;;;;;14.94;72.55;99307.23;1750526;81;21006;-71
2021/09/04 07:17:19;;;;;;;4.20;2.37;;;;;;;15.07;73.86;99313.49;1750878;81;21060;-70
2021/09/04 07:19:47;;;;;;;5.65;2.37;;;;;;;15.25;72.55;99311.23;1753025;81;21244;-70
2021/09/04 07:22:14;;;;;;;3.90;2.00;;;;;;;15.41;71.30;99310.13;1753572;81;21038;-72
2021/09/04 07:24:40;;;;;;;3.33;2.17;;;;;;;15.57;69.88;99314.34;1755920;81;21041;-70
2021/09/04 07:27:07;;;;;;;2.90;1.85;;;;;;;15.69;68.69;99308.70;1762769;81;20948;-68
2021/09/04 07:29:34;;;;;;;5.25;1.90;;;;;;;15.92;68.91;99309.48;1753323;81;21153;-68
2021/09/04 07:32:00;;;;;;;8.40;2.08;;;;;;;16.24;66.98;99309.67;1760804;80;20853;-68
2021/09/04 07:34:27;;;;;;;6.83;2.15;;;;;;;16.42;65.62;99316.44;1753872;81;20933;-69
2021/09/04 07:36:54;;;;;;;4.30;1.90;;;;;;;16.59;65.39;99312.48;1756647;81;20940;-68
2021/09/04 07:39:20;;;;;;;4.70;2.22;;;;;;;16.68;64.16;99310.34;1755147;81;20881;-67
2021/09/04 07:41:47;;;;;;;3.12;1.85;;;;;;;16.72;65.09;99314.00;1745903;81;22075;-69
2021/09/04 07:44:15;;;;;;;4.53;2.27;;;;;;;16.74;61.35;99317.80;1746491;81;21546;-68
2021/09/04 07:46:41;;;;;;;2.77;1.87;;;;;;;16.72;62.44;99318.73;1742724;80;20892;-69
2021/09/04 07:49:08;;;;;;;4.20;2.47;;;;;;;16.88;61.50;99317.27;1729551;81;20926;-68
2021/09/04 07:51:34;;;;;;;4.55;2.30;;;;;;;16.98;59.87;99321.66;1728423;82;21153;-68
2021/09/04 07:54:01;;;;;;;3.80;2.42;;;;;;;16.91;61.14;99320.70;1729821;82;21130;-68
2021/09/04 07:56:28;;;;;;;4.50;2.42;;;;;;;16.90;61.39;99317.13;1734204;82;20903;-68
2021/09/04 07:58:55;;;;;;;4.55;2.20;;;;;;;17.05;60.94;99320.43;1720648;82;20995;-68
2021/09/04 08:01:22;;;;;;;2.10;1.45;;;;;;;17.10;60.04;99324.30;1716954;82;20895;-68
2021/09/04 08:03:48;;;;;;;12.70;2.02;;;;;;;17.22;59.64;99319.78;1725326;82;21004;-68
2021/09/04 08:06:15;;;;;;;4.22;2.58;;;;;;;17.46;60.91;99313.31;1727345;82;21126;-69
2021/09/04 08:08:41;;;;;;;5.75;2.37;;;;;;;17.78;58.67;99319.49;1723742;82;20923;-68
2021/09/04 08:11:08;;;;;;;8.85;2.62;;;;;;;18.12;57.14;99316.88;1736450;82;20999;-69
2021/09/04 08:13:36;;;;;;;5.30;2.30;;;;;;;18.54;57.51;99315.92;1731535;82;20948;-69
2021/09/04 08:16:05;;;;;;;4.58;2.22;;;;;;;18.82;54.73;99314.17;1717293;82;20899;-69
2021/09/04 08:18:33;;;;;;;3.40;1.70;;;;;;;18.63;53.73;99318.68;1724173;82;21015;-69
2021/09/04 08:21:00;;;;;;;6.17;1.70;;;;;;;18.25;54.25;99321.06;1718414;82;21690;-69
2021/09/04 08:23:26;;;;;;;3.20;1.90;;;;;;;17.97;56.11;99316.41;1720654;82;20907;-69
2021/09/04 08:25:53;;;;;;;2.80;1.50;;;;;;;18.12;56.46;99321.05;1716195;81;21160;-68
2021/09/04 08:28:22;;;;;;;2.40;1.60;;;;;;;18.63;54.39;99313.71;1734412;81;20975;-69
2021/09/04 08:30:49;;;;;;;3.15;1.70;;;;;;;19.30;52.90;99317.96;1730749;82;21153;-67
2021/09/04 08:33:18;;;;;;;3.08;1.77;;;;;;;19.88;50.38;99311.83;1741709;81;20944;-69
2021/09/04 08:35:46;;;;;;;5.05;2.10;;;;;;;20.09;50.64;99318.99;1726964;82;20992;-68
2021/09/04 08:38:13;;;;;;;3.92;1.42;;;;;;;20.11;49.72;99315.23;1745339;81;21435;-73
2021/09/04 08:40:41;;;;;;;3.35;1.57;;;;;;;19.99;48.49;99316.31;1727363;82;20993;-68
2021/09/04 08:43:08;;;;;;;2.45;1.37;;;;;;;20.08;49.03;99320.98;1724611;82;21418;-68
2021/09/04 08:45:35;;;;;;;1.90;1.30;;;;;;;19.96;48.60;99313.50;1729343;81;20935;-68
2021/09/04 08:48:03;;;;;;;3.67;2.12;;;;;;;19.78;47.32;99318.89;1722347;82;21522;-68
2021/09/04 08:50:31;;;;;;;5.03;1.80;;;;;;;19.63;48.52;99319.95;1707974;82;20904;-69
2021/09/04 08:52:58;;;;;;;6.30;3.42;;;;;;;19.64;47.91;99317.38;1728963;81;21150;-68
2021/09/04 08:55:24;;;;;;;3.65;1.82;;;;;;;19.84;49.91;99321.55;1709535;81;21874;-68
2021/09/04 08:57:51;;;;;;;2.02;1.57;;;;;;;20.15;48.89;99319.44;1706545;83;20886;-68
2021/09/04 09:00:37;;;;;;;4.78;2.40;;;;;;;20.40;47.00;99318.45;1697282;84;20893;-69
2021/09/04 09:03:04;;;;;;;4.17;1.95;;;;;;;20.59;46.76;99319.39;1717453;81;20956;-68
2021/09/04 09:05:40;;;;;;;2.85;1.72;;;;;;;20.54;45.07;99320.55;1716881;81;21083;-68
2021/09/04 09:08:08;;;;;;;16.93;6.03;;;;;;;20.22;45.89;99325.84;1737723;81;21794;-68
2021/09/04 09:10:40;;;;;;;8.18;2.80;;;;;;;19.87;46.52;99331.12;1705375;81;20999;-68
2021/09/04 09:13:06;;;;;;;4.35;1.57;;;;;;;19.54;45.28;99333.38;1739035;81;20892;-68
2021/09/04 09:15:37;;;;;;;2.50;1.52;;;;;;;19.38;47.15;99330.78;1736739;82;20939;-69
2021/09/04 09:18:10;;;;;;;2.92;1.72;;;;;;;19.56;45.43;99333.80;1743555;81;20874;-69
2021/09/04 09:20:42;;;;;;;18.17;5.85;;;;;;;19.63;46.02;99333.30;1735179;81;21094;-69
2021/09/04 09:23:15;;;;;;;3.67;1.70;;;;;;;19.88;48.30;99331.33;1731461;82;21408;-69
2021/09/04 09:25:44;;;;;;;5.87;1.65;;;;;;;20.29;44.90;99330.68;1724177;82;20933;-69
2021/09/04 09:28:17;;;;;;;2.92;1.27;;;;;;;20.61;44.22;99330.95;1728186;81;20989;-68
2021/09/04 09:30:53;;;;;;;2.37;1.10;;;;;;;20.70;42.83;99328.03;1718433;82;21147;-69
2021/09/04 09:33:21;;;;;;;2.15;1.00;;;;;;;20.47;43.36;99341.41;1729021;81;21093;-68
2021/09/04 09:35:51;;;;;;;2.50;1.27;;;;;;;20.10;43.58;99338.70;1739302;81;20964;-68
2021/09/04 09:38:25;;;;;;;1.50;1.20;;;;;;;19.75;43.15;99340.55;1748640;81;21428;-68
2021/09/04 09:40:54;;;;;;;4.20;1.30;;;;;;;19.32;43.16;99339.25;1723289;81;20951;-68
2021/09/04 09:43:25;;;;;;;3.47;1.77;;;;;;;19.08;45.29;99335.77;1706999;81;21059;-68
2021/09/04 09:45:54;;;;;;;2.20;1.10;;;;;;;19.00;45.43;99328.55;1734586;81;21187;-67
2021/09/04 09:48:26;;;;;;;4.10;0.85;;;;;;;18.99;45.15;99334.48;1743339;80;21056;-68
2021/09/04 09:50:55;;;;;;;8.93;1.35;;;;;;;18.78;45.54;99339.16;1741827;80;21042;-69
2021/09/04 09:53:23;;;;;;;3.90;1.05;;;;;;;18.57;46.03;99342.98;1722728;81;21076;-68
2021/09/04 09:55:51;;;;;;;3.42;0.90;;;;;;;18.48;46.41;99339.09;1710312;82;21019;-69
2021/09/04 09:58:20;;;;;;;1.42;0.82;;;;;;;18.62;45.33;99334.34;1725340;81;21169;-73
2021/09/04 10:00:51;;;;;;;2.02;1.00;;;;;;;18.92;44.69;99331.60;1711332;81;21049;-69
2021/09/04 10:03:20;;;;;;;1.32;1.10;;;;;;;19.27;43.56;99331.23;1713144;81;21030;-71
2021/09/04 10:05:47;;;;;;;1.67;1.20;;;;;;;19.76;43.09;99335.98;1753107;80;21062;-68
2021/09/04 10:08:19;;;;;;;2.87;1.42;;;;;;;20.24;43.52;99329.05;1727784;81;21549;-69
2021/09/04 10:10:47;;;;;;;2.72;1.20;;;;;;;20.39;42.53;99340.55;1720759;81;21088;-68
2021/09/04 10:13:15;;;;;;;2.08;1.25;;;;;;;20.25;40.51;99343.19;1732706;81;20987;-68
2021/09/04 10:15:48;;;;;;;2.37;1.05;;;;;;;19.91;41.53;99337.52;1724067;82;20983;-68
2021/09/04 10:18:15;;;;;;;4.33;1.50;;;;;;;19.76;41.48;99342.15;1737357;81;21039;-68
2021/09/04 10:20:45;;;;;;;7.50;3.05;;;;;;;19.86;41.67;99342.05;1756723;81;20921;-68
2021/09/04 10:23:22;;;;;;;6.33;2.50;;;;;;;19.88;42.00;99348.84;1757366;81;21822;-68
2021/09/04 10:25:49;;;;;;;4.08;1.62;;;;;;;19.84;41.71;99346.61;1746192;80;20981;-70
2021/09/04 10:28:16;;;;;;;7.30;2.05;;;;;;;20.14;43.31;99350.69;1761950;80;20971;-69
2021/09/04 10:30:45;;;;;;;4.30;1.80;;;;;;;20.55;42.00;99347.84;1752560;81;20996;-74
2021/09/04 10:33:18;;;;;;;3.90;1.62;;;;;;;20.64;39.73;99351.09;1753320;81;21530;-69
2021/09/04 10:35:51;;;;;;;8.55;2.20;;;;;;;20.44;41.08;99358.91;1762915;81;20932;-72
2021/09/04 10:38:24;;;;;;;10.30;2.67;;;;;;;19.95;41.01;99363.44;1758451;81;21455;-73
2021/09/04 10:41:10;;;;;;;5.10;1.90;;;;;;;19.56;41.48;99363.84;1747021;81;20927;-71
2021/09/04 10:43:37;;;;;;;3.45;1.72;;;;;;;19.19;41.91;99374.06;1749134;81;20972;-71
2021/09/04 10:46:03;;;;;;;5.05;1.70;;;;;;;18.86;43.31;99363.70;1699870;81;20936;-72
2021/09/04 10:48:38;;;;;;;2.72;1.27;;;;;;;18.63;43.03;99363.75;1690761;83;21154;-71
2021/09/04 10:51:09;;;;;;;2.52;1.50;;;;;;;18.50;41.18;99365.91;1751613;80;20991;-73
2021/09/04 10:53:47;;;;;;;2.45;1.50;;;;;;;18.72;43.56;99368.45;1747252;80;21124;-72
2021/09/04 10:56:27;;;;;;;3.25;1.50;;;;;;;19.28;42.06;99361.47;1754416;81;21030;-73
2021/09/04 10:58:54;;;;;;;4.40;1.10;;;;;;;19.88;40.57;99364.16;1742804;81;20983;-72
2021/09/04 11:01:28;;;;;;;2.30;1.35;;;;;;;20.56;40.73;99368.37;1753609;81;21137;-72
2021/09/04 11:03:56;;;;;;;3.42;1.10;;;;;;;21.08;39.64;99363.50;1749144;81;20888;-72
2021/09/04 11:06:24;;;;;;;1.30;1.10;;;;;;;21.71;41.37;99361.59;1752016;80;21004;-72
2021/09/04 11:08:53;;;;;;;1.50;1.00;;;;;;;22.15;39.14;99358.28;1751570;81;20876;-72
2021/09/04 11:11:35;;;;;;;5.87;2.50;;;;;;;22.17;36.85;99353.09;1755035;81;20999;-72
2021/09/04 11:14:21;;;;;;;4.28;2.00;;;;;;;21.61;37.00;99362.95;1731209;82;21811;-72
2021/09/04 11:16:52;;;;;;;10.20;2.70;;;;;;;20.91;37.19;99369.19;1722168;82;21458;-73
2021/09/04 11:19:28;;;;;;;11.80;2.05;;;;;;;20.44;39.01;99377.83;1729117;82;20979;-72
2021/09/04 11:22:00;;;;;;;2.77;1.67;;;;;;;20.16;39.36;99382.35;1722960;82;21007;-72
2021/09/04 11:24:38;;;;;;;2.30;1.25;;;;;;;19.78;40.63;99374.01;1709492;82;20960;-72
2021/09/04 11:27:08;;;;;;;3.02;1.50;;;;;;;19.48;39.57;99370.47;1730033;81;21127;-72
2021/09/04 11:29:47;;;;;;;1.80;1.15;;;;;;;19.21;39.49;99375.89;1733139;82;21482;-72
2021/09/04 11:32:16;;;;;;;3.25;1.55;;;;;;;18.91;39.52;99374.50;1718924;82;21055;-74